createdAt,value
2017-11-28T00:00:58.284Z,0
2017-11-28T00:01:58.273Z,0
2017-11-28T00:02:58.279Z,0
2017-11-28T00:03:58.254Z,0
2017-11-28T00:04:58.255Z,0
2017-11-28T00:05:58.232Z,0
2017-11-28T00:06:57.950Z,0
2017-11-28T00:07:57.945Z,0
2017-11-28T00:08:58.180Z,0
2017-11-28T00:09:58.193Z,0
2017-11-28T00:10:58.178Z,0
2017-11-28T00:11:58.156Z,0
2017-11-28T00:12:58.133Z,0
2017-11-28T00:13:58.117Z,0
2017-11-28T00:14:58.118Z,0
2017-11-28T00:15:58.092Z,0
2017-11-28T00:16:58.089Z,0
2017-11-28T00:17:57.800Z,0
2017-11-28T00:18:58.061Z,0
2017-11-28T00:19:58.048Z,0
2017-11-28T00:20:58.037Z,0
2017-11-28T00:21:58.033Z,0
2017-11-28T00:22:58.043Z,0
2017-11-28T00:23:58.014Z,0
2017-11-28T00:24:57.986Z,0
2017-11-28T00:25:57.725Z,0
2017-11-28T00:26:57.976Z,0
2017-11-28T00:27:57.979Z,0
2017-11-28T00:28:57.951Z,0
2017-11-28T00:29:57.932Z,0
2017-11-28T00:30:57.920Z,0
2017-11-28T00:31:57.648Z,0
2017-11-28T00:32:57.896Z,0
2017-11-28T00:33:57.647Z,0
2017-11-28T00:34:57.892Z,0
2017-11-28T00:35:57.872Z,0
2017-11-28T00:36:57.588Z,0
2017-11-28T00:37:57.573Z,0
2017-11-28T00:38:57.824Z,0
2017-11-28T00:39:57.538Z,0
2017-11-28T00:40:57.551Z,0
2017-11-28T00:41:57.778Z,0
2017-11-28T00:42:57.519Z,0
2017-11-28T00:43:57.773Z,0
2017-11-28T00:44:57.751Z,0
2017-11-28T00:45:57.796Z,0
2017-11-28T00:46:57.734Z,0
2017-11-28T00:47:57.730Z,0
2017-11-28T00:48:57.717Z,0
2017-11-28T00:49:57.703Z,0
2017-11-28T00:50:57.705Z,0
2017-11-28T00:51:57.675Z,0
2017-11-28T00:52:57.654Z,0
2017-11-28T00:53:57.391Z,0
2017-11-28T00:54:57.662Z,0
2017-11-28T00:55:57.632Z,0
2017-11-28T00:56:57.621Z,0
2017-11-28T00:57:57.623Z,0
2017-11-28T00:58:57.600Z,0
2017-11-28T00:59:57.351Z,0
2017-11-28T01:00:57.581Z,0
2017-11-28T01:01:57.559Z,0
2017-11-28T01:02:57.546Z,0
2017-11-28T01:03:57.539Z,0
2017-11-28T01:04:57.521Z,0
2017-11-28T01:05:57.541Z,0
2017-11-28T01:06:57.505Z,0
2017-11-28T01:07:57.508Z,0
2017-11-28T01:08:57.506Z,0
2017-11-28T01:09:57.469Z,0
2017-11-28T01:10:57.464Z,0
2017-11-28T01:11:57.447Z,0
2017-11-28T01:12:57.422Z,0
2017-11-28T01:13:57.418Z,0
2017-11-28T01:14:57.396Z,0
2017-11-28T01:15:57.397Z,0
2017-11-28T01:16:57.387Z,0
2017-11-28T01:17:57.397Z,0
2017-11-28T01:18:57.367Z,0
2017-11-28T01:19:57.621Z,0
2017-11-28T01:20:57.351Z,0
2017-11-28T01:21:57.329Z,0
2017-11-28T01:22:57.316Z,0
2017-11-28T01:23:57.314Z,0
2017-11-28T01:24:57.303Z,0
2017-11-28T01:25:57.295Z,0
2017-11-28T01:26:56.744Z,0
2017-11-28T01:27:57.266Z,0
2017-11-28T01:28:56.975Z,0
2017-11-28T01:29:57.244Z,0
2017-11-28T01:30:57.222Z,0
2017-11-28T01:31:57.210Z,0
2017-11-28T01:32:57.214Z,0
2017-11-28T01:33:57.186Z,0
2017-11-28T01:34:56.922Z,0
2017-11-28T01:35:57.156Z,0
2017-11-28T01:36:56.894Z,0
2017-11-28T01:37:57.136Z,0
2017-11-28T01:38:57.129Z,0
2017-11-28T01:39:57.129Z,0
2017-11-28T01:40:57.110Z,0
2017-11-28T01:41:57.133Z,0
2017-11-28T01:42:57.087Z,0
2017-11-28T01:43:57.084Z,0
2017-11-28T01:44:57.065Z,0
2017-11-28T01:45:57.045Z,0
2017-11-28T01:46:57.036Z,0
2017-11-28T01:47:57.024Z,0
2017-11-28T01:48:57.032Z,0
2017-11-28T01:49:57.006Z,0
2017-11-28T01:50:57.239Z,0
2017-11-28T01:51:56.981Z,0
2017-11-28T01:52:56.963Z,0
2017-11-28T01:53:56.973Z,0
2017-11-28T01:54:56.946Z,0
2017-11-28T01:55:56.946Z,0
2017-11-28T01:56:56.936Z,0
2017-11-28T01:57:56.913Z,0
2017-11-28T01:58:56.926Z,0
2017-11-28T01:59:56.909Z,0
2017-11-28T02:00:56.880Z,0
2017-11-28T02:01:56.935Z,0
2017-11-28T02:02:56.856Z,0
2017-11-28T02:03:56.846Z,0
2017-11-28T02:04:56.834Z,0
2017-11-28T02:05:56.822Z,0
2017-11-28T02:06:56.828Z,0
2017-11-28T02:07:56.801Z,0
2017-11-28T02:08:56.781Z,0
2017-11-28T02:09:56.776Z,0
2017-11-28T02:10:56.748Z,0
2017-11-28T02:11:56.745Z,0
2017-11-28T02:12:56.736Z,0
2017-11-28T02:13:56.736Z,0
2017-11-28T02:14:56.447Z,0
2017-11-28T02:15:56.701Z,0
2017-11-28T02:16:56.679Z,0
2017-11-28T02:17:56.678Z,0
2017-11-28T02:18:56.663Z,0
2017-11-28T02:19:56.665Z,0
2017-11-28T02:20:56.648Z,0
2017-11-28T02:21:56.889Z,0
2017-11-28T02:22:56.367Z,0
2017-11-28T02:23:56.374Z,0
2017-11-28T02:24:56.325Z,0
2017-11-28T02:25:56.582Z,0
2017-11-28T02:26:56.567Z,0
2017-11-28T02:27:56.564Z,0
2017-11-28T02:28:56.546Z,0
2017-11-28T02:29:56.531Z,0
2017-11-28T02:30:56.268Z,0
2017-11-28T02:31:56.506Z,0
2017-11-28T02:32:56.499Z,0
2017-11-28T02:33:56.491Z,0
2017-11-28T02:34:56.486Z,0
2017-11-28T02:35:56.484Z,0
2017-11-28T02:36:56.453Z,0
2017-11-28T02:37:56.446Z,0
2017-11-28T02:38:56.425Z,0
2017-11-28T02:39:56.418Z,0
2017-11-28T02:40:56.403Z,0
2017-11-28T02:41:56.389Z,0
2017-11-28T02:42:56.393Z,0
2017-11-28T02:43:56.374Z,0
2017-11-28T02:44:56.361Z,0
2017-11-28T02:45:56.340Z,0
2017-11-28T02:46:56.338Z,0
2017-11-28T02:47:56.311Z,0
2017-11-28T02:48:56.320Z,0
2017-11-28T02:49:56.286Z,0
2017-11-28T02:50:56.301Z,0
2017-11-28T02:51:56.271Z,0
2017-11-28T02:52:56.505Z,0
2017-11-28T02:53:56.250Z,0
2017-11-28T02:54:56.253Z,0
2017-11-28T02:55:56.214Z,0
2017-11-28T02:56:56.211Z,0
2017-11-28T02:57:56.190Z,0
2017-11-28T02:58:56.180Z,0
2017-11-28T02:59:56.155Z,0
2017-11-28T03:00:56.166Z,0
2017-11-28T03:01:56.155Z,0
2017-11-28T03:02:56.152Z,0
2017-11-28T03:03:56.118Z,0
2017-11-28T03:04:56.109Z,0
2017-11-28T03:05:55.579Z,0
2017-11-28T03:06:56.085Z,0
2017-11-28T03:07:56.075Z,0
2017-11-28T03:08:56.075Z,0
2017-11-28T03:09:56.073Z,0
2017-11-28T03:10:56.047Z,0
2017-11-28T03:11:56.035Z,0
2017-11-28T03:12:56.021Z,0
2017-11-28T03:13:55.990Z,0
2017-11-28T03:14:55.988Z,0
2017-11-28T03:15:55.988Z,0
2017-11-28T03:16:55.975Z,0
2017-11-28T03:17:55.956Z,0
2017-11-28T03:18:55.701Z,0
2017-11-28T03:19:55.671Z,0
2017-11-28T03:20:55.668Z,0
2017-11-28T03:21:55.903Z,0
2017-11-28T03:22:55.899Z,0
2017-11-28T03:23:56.155Z,0
2017-11-28T03:24:55.883Z,0
2017-11-28T03:25:55.629Z,0
2017-11-28T03:26:55.854Z,0
2017-11-28T03:27:55.831Z,0
2017-11-28T03:28:55.839Z,0
2017-11-28T03:29:55.817Z,0
2017-11-28T03:30:55.836Z,0
2017-11-28T03:31:55.524Z,0
2017-11-28T03:32:55.774Z,0
2017-11-28T03:33:55.763Z,0
2017-11-28T03:34:55.765Z,0
2017-11-28T03:35:55.744Z,0
2017-11-28T03:36:55.735Z,0
2017-11-28T03:37:55.468Z,0
2017-11-28T03:38:55.707Z,0
2017-11-28T03:39:55.725Z,0
2017-11-28T03:40:55.697Z,0
2017-11-28T03:41:55.687Z,0
2017-11-28T03:42:55.663Z,0
2017-11-28T03:43:55.670Z,0
2017-11-28T03:44:55.647Z,0
2017-11-28T03:45:55.656Z,0
2017-11-28T03:46:55.649Z,0
2017-11-28T03:47:55.619Z,0
2017-11-28T03:48:55.612Z,0
2017-11-28T03:49:55.614Z,0
2017-11-28T03:50:55.586Z,0
2017-11-28T03:51:55.557Z,0
2017-11-28T03:52:55.554Z,0
2017-11-28T03:53:55.561Z,0
2017-11-28T03:54:55.262Z,0
2017-11-28T03:55:55.498Z,0
2017-11-28T03:56:55.491Z,0
2017-11-28T03:57:55.497Z,0
2017-11-28T03:58:55.461Z,0
2017-11-28T03:59:55.459Z,0
2017-11-28T04:00:55.451Z,0
2017-11-28T04:01:55.172Z,0
2017-11-28T04:02:55.434Z,0
2017-11-28T04:03:55.414Z,0
2017-11-28T04:04:55.404Z,0
2017-11-28T04:05:55.410Z,0
2017-11-28T04:06:55.396Z,0
2017-11-28T04:07:55.380Z,0
2017-11-28T04:08:55.367Z,0
2017-11-28T04:09:55.366Z,0
2017-11-28T04:10:55.340Z,0
2017-11-28T04:11:55.347Z,0
2017-11-28T04:12:55.333Z,0
2017-11-28T04:13:55.324Z,0
2017-11-28T04:14:55.284Z,0
2017-11-28T04:15:55.035Z,0
2017-11-28T04:16:55.282Z,0
2017-11-28T04:17:55.249Z,0
2017-11-28T04:18:55.268Z,0
2017-11-28T04:19:54.989Z,0
2017-11-28T04:20:54.976Z,0
2017-11-28T04:21:55.209Z,0
2017-11-28T04:22:55.208Z,0
2017-11-28T04:23:54.941Z,0
2017-11-28T04:24:55.188Z,0
2017-11-28T04:25:55.186Z,0
2017-11-28T04:26:55.453Z,0
2017-11-28T04:27:55.147Z,0
2017-11-28T04:28:55.144Z,0
2017-11-28T04:29:55.160Z,0
2017-11-28T04:30:55.121Z,0
2017-11-28T04:31:54.847Z,0
2017-11-28T04:32:55.094Z,0
2017-11-28T04:33:54.822Z,0
2017-11-28T04:34:55.074Z,0
2017-11-28T04:35:55.055Z,0
2017-11-28T04:36:55.055Z,0
2017-11-28T04:37:55.047Z,0
2017-11-28T04:38:55.038Z,0
2017-11-28T04:39:55.024Z,0
2017-11-28T04:40:55.012Z,0
2017-11-28T04:41:54.995Z,0
2017-11-28T04:42:54.990Z,0
2017-11-28T04:43:54.979Z,0
2017-11-28T04:44:54.964Z,0
2017-11-28T04:45:54.955Z,0
2017-11-28T04:46:54.925Z,0
2017-11-28T04:47:54.936Z,0
2017-11-28T04:48:54.916Z,0
2017-11-28T04:49:54.909Z,0
2017-11-28T04:50:54.932Z,0
2017-11-28T04:51:54.892Z,0
2017-11-28T04:52:54.871Z,0
2017-11-28T04:53:54.890Z,0
2017-11-28T04:54:54.849Z,0
2017-11-28T04:55:54.844Z,0
2017-11-28T04:56:54.830Z,0
2017-11-28T04:57:55.073Z,0
2017-11-28T04:58:54.818Z,0
2017-11-28T04:59:54.789Z,0
2017-11-28T05:00:54.783Z,0
2017-11-28T05:01:54.781Z,0
2017-11-28T05:02:54.501Z,0
2017-11-28T05:03:54.761Z,0
2017-11-28T05:04:54.732Z,0
2017-11-28T05:05:54.474Z,0
2017-11-28T05:06:54.720Z,0
2017-11-28T05:07:54.703Z,0
2017-11-28T05:08:54.699Z,0
2017-11-28T05:09:54.471Z,0
2017-11-28T05:10:54.423Z,0
2017-11-28T05:11:54.660Z,0
2017-11-28T05:12:54.662Z,0
2017-11-28T05:13:54.379Z,0
2017-11-28T05:14:54.622Z,0
2017-11-28T05:15:54.360Z,0
2017-11-28T05:16:54.616Z,0
2017-11-28T05:17:54.605Z,0
2017-11-28T05:18:54.582Z,0
2017-11-28T05:19:54.569Z,20
2017-11-28T05:20:54.308Z,36
2017-11-28T05:21:54.572Z,36
2017-11-28T05:22:54.555Z,40
2017-11-28T05:23:54.525Z,40
2017-11-28T05:24:54.538Z,40
2017-11-28T05:25:54.243Z,40
2017-11-28T05:26:54.497Z,40
2017-11-28T05:27:54.497Z,40
2017-11-28T05:28:54.725Z,44
2017-11-28T05:29:54.467Z,44
2017-11-28T05:30:54.448Z,44
2017-11-28T05:31:54.444Z,44
2017-11-28T05:32:54.435Z,44
2017-11-28T05:33:54.430Z,0
2017-11-28T05:34:54.408Z,0
2017-11-28T05:35:54.397Z,0
2017-11-28T05:36:54.431Z,0
2017-11-28T05:37:54.374Z,0
2017-11-28T05:38:54.366Z,0
2017-11-28T05:39:54.359Z,0
2017-11-28T05:40:54.336Z,0
2017-11-28T05:41:54.338Z,0
2017-11-28T05:42:54.343Z,0
2017-11-28T05:43:54.352Z,0
2017-11-28T05:44:54.307Z,0
2017-11-28T05:45:54.296Z,0
2017-11-28T05:46:54.287Z,0
2017-11-28T05:47:54.269Z,0
2017-11-28T05:48:54.255Z,0
2017-11-28T05:49:54.259Z,0
2017-11-28T05:50:54.252Z,0
2017-11-28T05:51:54.226Z,0
2017-11-28T05:52:54.235Z,0
2017-11-28T05:53:54.195Z,0
2017-11-28T05:54:54.196Z,0
2017-11-28T05:55:53.923Z,0
2017-11-28T05:56:53.983Z,0
2017-11-28T05:57:54.154Z,0
2017-11-28T05:58:53.894Z,0
2017-11-28T05:59:54.393Z,0
2017-11-28T06:00:54.133Z,0
2017-11-28T06:01:54.124Z,0
2017-11-28T06:02:54.085Z,0
2017-11-28T06:03:54.080Z,0
2017-11-28T06:04:54.082Z,0
2017-11-28T06:05:54.065Z,0
2017-11-28T06:06:54.066Z,0
2017-11-28T06:07:54.032Z,0
2017-11-28T06:08:54.028Z,0
2017-11-28T06:09:53.777Z,0
2017-11-28T06:10:54.020Z,0
2017-11-28T06:11:54.016Z,0
2017-11-28T06:12:53.986Z,0
2017-11-28T06:13:53.981Z,0
2017-11-28T06:14:53.956Z,0
2017-11-28T06:15:53.980Z,0
2017-11-28T06:16:53.944Z,0
2017-11-28T06:17:53.949Z,0
2017-11-28T06:18:53.925Z,4
2017-11-28T06:19:53.672Z,4
2017-11-28T06:20:53.903Z,0
2017-11-28T06:21:53.909Z,4
2017-11-28T06:22:53.877Z,4
2017-11-28T06:23:53.906Z,8
2017-11-28T06:24:53.875Z,4
2017-11-28T06:25:53.840Z,8
2017-11-28T06:26:53.836Z,8
2017-11-28T06:27:53.816Z,12
2017-11-28T06:28:53.807Z,12
2017-11-28T06:29:53.815Z,12
2017-11-28T06:30:53.808Z,16
2017-11-28T06:31:53.780Z,20
2017-11-28T06:32:53.771Z,20
2017-11-28T06:33:53.753Z,28
2017-11-28T06:34:53.739Z,32
2017-11-28T06:35:53.744Z,36
2017-11-28T06:36:53.742Z,44
2017-11-28T06:37:53.451Z,48
2017-11-28T06:38:53.693Z,52
2017-11-28T06:39:53.677Z,60
2017-11-28T06:40:53.664Z,68
2017-11-28T06:41:53.686Z,72
2017-11-28T06:42:53.663Z,80
2017-11-28T06:43:53.654Z,88
2017-11-28T06:44:53.634Z,92
2017-11-28T06:45:53.618Z,104
2017-11-28T06:46:53.612Z,112
2017-11-28T06:47:53.608Z,124
2017-11-28T06:48:53.599Z,136
2017-11-28T06:49:53.326Z,152
2017-11-28T06:50:53.579Z,164
2017-11-28T06:51:53.553Z,176
2017-11-28T06:52:53.545Z,192
2017-11-28T06:53:53.527Z,200
2017-11-28T06:54:53.528Z,208
2017-11-28T06:55:53.519Z,212
2017-11-28T06:56:53.509Z,208
2017-11-28T06:57:53.495Z,208
2017-11-28T06:58:53.487Z,224
2017-11-28T06:59:53.456Z,236
2017-11-28T07:00:53.487Z,248
2017-11-28T07:01:53.177Z,244
2017-11-28T07:02:53.407Z,264
2017-11-28T07:03:53.165Z,280
2017-11-28T07:04:53.429Z,288
2017-11-28T07:05:53.412Z,304
2017-11-28T07:06:53.127Z,324
2017-11-28T07:07:53.397Z,344
2017-11-28T07:08:53.403Z,360
2017-11-28T07:09:53.089Z,372
2017-11-28T07:10:53.078Z,380
2017-11-28T07:11:53.069Z,404
2017-11-28T07:12:53.334Z,428
2017-11-28T07:13:53.042Z,444
2017-11-28T07:14:53.303Z,460
2017-11-28T07:15:53.285Z,484
2017-11-28T07:16:53.287Z,516
2017-11-28T07:17:53.280Z,544
2017-11-28T07:18:53.257Z,564
2017-11-28T07:19:53.246Z,572
2017-11-28T07:20:53.243Z,572
2017-11-28T07:21:53.216Z,576
2017-11-28T07:22:53.229Z,600
2017-11-28T07:23:53.188Z,632
2017-11-28T07:24:53.191Z,648
2017-11-28T07:25:53.189Z,648
2017-11-28T07:26:53.146Z,640
2017-11-28T07:27:53.150Z,628
2017-11-28T07:28:52.875Z,616
2017-11-28T07:29:52.878Z,608
2017-11-28T07:30:52.852Z,616
2017-11-28T07:31:53.099Z,628
2017-11-28T07:32:53.090Z,640
2017-11-28T07:33:53.063Z,664
2017-11-28T07:34:52.820Z,720
2017-11-28T07:35:52.792Z,804
2017-11-28T07:36:52.786Z,892
2017-11-28T07:37:53.029Z,964
2017-11-28T07:38:53.028Z,1032
2017-11-28T07:39:53.024Z,1092
2017-11-28T07:40:53.007Z,1156
2017-11-28T07:41:52.995Z,1228
2017-11-28T07:42:52.996Z,1304
2017-11-28T07:43:52.436Z,1368
2017-11-28T07:44:52.968Z,1432
2017-11-28T07:45:52.945Z,1496
2017-11-28T07:46:52.950Z,1572
2017-11-28T07:47:52.917Z,1632
2017-11-28T07:48:52.925Z,1656
2017-11-28T07:49:52.890Z,1636
2017-11-28T07:50:52.888Z,1604
2017-11-28T07:51:52.632Z,1576
2017-11-28T07:52:52.860Z,1560
2017-11-28T07:53:52.868Z,1528
2017-11-28T07:54:52.838Z,1468
2017-11-28T07:55:52.580Z,1412
2017-11-28T07:56:52.581Z,1388
2017-11-28T07:57:52.813Z,1380
2017-11-28T07:58:52.798Z,1396
2017-11-28T07:59:52.788Z,1444
2017-11-28T08:00:52.782Z,1524
2017-11-28T08:01:52.779Z,1632
2017-11-28T08:02:52.743Z,1756
2017-11-28T08:03:52.482Z,1816
2017-11-28T08:04:52.980Z,1812
2017-11-28T08:05:52.451Z,1864
2017-11-28T08:06:52.728Z,1988
2017-11-28T08:07:52.707Z,2148
2017-11-28T08:08:52.693Z,2288
2017-11-28T08:09:52.694Z,2428
2017-11-28T08:10:52.661Z,2544
2017-11-28T08:11:52.670Z,2604
2017-11-28T08:12:52.672Z,2640
2017-11-28T08:13:52.660Z,2664
2017-11-28T08:14:52.626Z,2640
2017-11-28T08:15:52.608Z,2624
2017-11-28T08:16:52.636Z,2604
2017-11-28T08:17:52.585Z,2576
2017-11-28T08:18:52.335Z,2556
2017-11-28T08:19:52.579Z,2520
2017-11-28T08:20:52.550Z,2460
2017-11-28T08:21:52.549Z,2400
2017-11-28T08:22:52.535Z,2356
2017-11-28T08:23:52.511Z,2328
2017-11-28T08:24:52.535Z,2320
2017-11-28T08:25:52.509Z,2316
2017-11-28T08:26:52.489Z,2332
2017-11-28T08:27:52.508Z,2372
2017-11-28T08:28:52.511Z,2404
2017-11-28T08:29:52.224Z,2440
2017-11-28T08:30:52.465Z,2528
2017-11-28T08:31:52.462Z,2624
2017-11-28T08:32:52.415Z,2732
2017-11-28T08:33:52.160Z,2824
2017-11-28T08:34:52.420Z,2916
2017-11-28T08:35:52.666Z,3040
2017-11-28T08:36:52.390Z,3192
2017-11-28T08:37:52.389Z,3324
2017-11-28T08:38:52.103Z,3392
2017-11-28T08:39:52.355Z,3392
2017-11-28T08:40:52.375Z,3348
2017-11-28T08:41:52.332Z,3344
2017-11-28T08:42:52.079Z,3408
2017-11-28T08:43:52.329Z,3512
2017-11-28T08:44:52.347Z,3608
2017-11-28T08:45:52.323Z,3688
2017-11-28T08:46:52.336Z,3760
2017-11-28T08:47:52.276Z,3848
2017-11-28T08:48:52.279Z,3972
2017-11-28T08:49:52.265Z,4132
2017-11-28T08:50:52.257Z,4256
2017-11-28T08:51:52.479Z,4324
2017-11-28T08:52:51.968Z,4448
2017-11-28T08:53:51.953Z,4704
2017-11-28T08:54:51.988Z,4804
2017-11-28T08:55:52.311Z,4580
2017-11-28T08:56:52.295Z,4280
2017-11-28T08:57:52.201Z,3996
2017-11-28T08:58:51.932Z,3788
2017-11-28T08:59:52.249Z,3616
2017-11-28T09:00:52.215Z,3472
2017-11-28T09:01:52.188Z,3380
2017-11-28T09:02:52.172Z,3312
2017-11-28T09:03:51.899Z,3308
2017-11-28T09:04:52.744Z,3320
2017-11-28T09:05:52.157Z,3408
2017-11-28T09:06:52.141Z,3424
2017-11-28T09:07:51.842Z,3384
2017-11-28T09:08:52.092Z,3364
2017-11-28T09:09:52.093Z,3408
2017-11-28T09:10:52.122Z,3496
2017-11-28T09:11:52.167Z,3524
2017-11-28T09:12:52.130Z,3476
2017-11-28T09:13:51.994Z,3408
2017-11-28T09:14:52.017Z,3240
2017-11-28T09:15:52.010Z,3104
2017-11-28T09:16:52.016Z,3036
2017-11-28T09:17:51.986Z,3036
2017-11-28T09:18:52.001Z,3052
2017-11-28T09:19:51.697Z,3088
2017-11-28T09:20:51.710Z,3120
2017-11-28T09:21:52.003Z,3184
2017-11-28T09:22:52.060Z,3248
2017-11-28T09:23:51.897Z,3324
2017-11-28T09:24:51.922Z,3400
2017-11-28T09:25:51.906Z,3508
2017-11-28T09:26:51.872Z,3588
2017-11-28T09:27:51.897Z,3664
2017-11-28T09:28:51.617Z,3800
2017-11-28T09:29:51.655Z,4028
2017-11-28T09:30:51.850Z,4380
2017-11-28T09:31:51.574Z,4740
2017-11-28T09:32:51.627Z,4948
2017-11-28T09:33:51.822Z,4952
2017-11-28T09:34:51.839Z,4864
2017-11-28T09:35:52.040Z,4840
2017-11-28T09:36:51.521Z,4840
2017-11-28T09:37:51.764Z,4676
2017-11-28T09:38:51.799Z,4268
2017-11-28T09:39:51.797Z,3840
2017-11-28T09:40:51.951Z,3588
2017-11-28T09:41:51.485Z,3504
2017-11-28T09:42:51.718Z,3560
2017-11-28T09:43:51.794Z,3664
2017-11-28T09:44:51.463Z,3784
2017-11-28T09:45:51.413Z,3916
2017-11-28T09:46:51.410Z,4028
2017-11-28T09:47:51.690Z,4108
2017-11-28T09:48:51.157Z,4140
2017-11-28T09:49:51.151Z,4120
2017-11-28T09:50:51.632Z,4068
2017-11-28T09:51:51.674Z,4008
2017-11-28T09:52:51.637Z,4028
2017-11-28T09:53:51.402Z,4144
2017-11-28T09:54:51.608Z,4328
2017-11-28T09:55:51.615Z,4480
2017-11-28T09:56:51.726Z,4516
2017-11-28T09:57:51.549Z,4500
2017-11-28T09:58:51.323Z,4508
2017-11-28T09:59:51.651Z,4568
2017-11-28T10:00:51.538Z,4664
2017-11-28T10:01:51.551Z,4768
2017-11-28T10:02:51.242Z,4832
2017-11-28T10:03:51.270Z,4828
2017-11-28T10:04:51.509Z,4760
2017-11-28T10:05:51.501Z,4664
2017-11-28T10:06:51.512Z,4592
2017-11-28T10:07:51.490Z,4636
2017-11-28T10:08:51.221Z,4848
2017-11-28T10:09:51.482Z,5176
2017-11-28T10:10:51.424Z,5452
2017-11-28T10:11:51.433Z,5552
2017-11-28T10:12:51.454Z,5544
2017-11-28T10:13:51.420Z,5548
2017-11-28T10:14:51.133Z,5572
2017-11-28T10:15:51.411Z,5620
2017-11-28T10:16:51.384Z,5680
2017-11-28T10:17:51.377Z,5684
2017-11-28T10:18:51.107Z,5588
2017-11-28T10:19:51.105Z,5444
2017-11-28T10:20:51.342Z,5228
2017-11-28T10:21:51.329Z,5100
2017-11-28T10:22:51.333Z,5200
2017-11-28T10:23:51.370Z,5416
2017-11-28T10:24:51.309Z,5504
2017-11-28T10:25:51.337Z,5636
2017-11-28T10:26:51.341Z,5868
2017-11-28T10:27:51.591Z,6016
2017-11-28T10:28:51.270Z,5896
2017-11-28T10:29:51.274Z,5916
2017-11-28T10:30:51.246Z,5976
2017-11-28T10:31:51.683Z,5992
2017-11-28T10:32:51.272Z,5960
2017-11-28T10:33:50.955Z,5928
2017-11-28T10:34:51.243Z,5992
2017-11-28T10:35:50.934Z,5712
2017-11-28T10:36:51.205Z,5476
2017-11-28T10:37:50.705Z,5104
2017-11-28T10:38:50.673Z,5000
2017-11-28T10:39:51.192Z,5300
2017-11-28T10:40:51.414Z,5364
2017-11-28T10:41:51.185Z,5300
2017-11-28T10:42:51.126Z,5156
2017-11-28T10:43:50.856Z,4944
2017-11-28T10:44:51.171Z,4996
2017-11-28T10:45:51.129Z,5184
2017-11-28T10:46:51.129Z,5404
2017-11-28T10:47:50.839Z,5416
2017-11-28T10:48:50.834Z,5416
2017-11-28T10:49:51.086Z,5304
2017-11-28T10:50:51.077Z,5324
2017-11-28T10:51:50.790Z,5384
2017-11-28T10:52:51.083Z,5476
2017-11-28T10:53:51.033Z,5660
2017-11-28T10:54:51.040Z,5888
2017-11-28T10:55:50.764Z,6124
2017-11-28T10:56:51.046Z,6268
2017-11-28T10:57:51.014Z,6368
2017-11-28T10:58:50.744Z,6424
2017-11-28T10:59:50.731Z,6488
2017-11-28T11:00:51.050Z,6492
2017-11-28T11:01:50.699Z,6504
2017-11-28T11:02:50.683Z,6508
2017-11-28T11:03:50.989Z,6160
2017-11-28T11:04:50.709Z,5980
2017-11-28T11:05:50.404Z,6052
2017-11-28T11:06:50.650Z,6080
2017-11-28T11:07:50.676Z,6012
2017-11-28T11:08:50.649Z,5684
2017-11-28T11:09:50.626Z,5472
2017-11-28T11:10:50.688Z,5624
2017-11-28T11:11:51.111Z,6020
2017-11-28T11:12:50.597Z,6232
2017-11-28T11:13:50.890Z,6424
2017-11-28T11:14:50.373Z,6416
2017-11-28T11:15:50.901Z,6508
2017-11-28T11:16:50.577Z,6676
2017-11-28T11:17:50.863Z,6724
2017-11-28T11:18:50.862Z,6856
2017-11-28T11:19:50.794Z,7092
2017-11-28T11:20:50.814Z,6848
2017-11-28T11:21:50.614Z,7516
2017-11-28T11:22:50.837Z,7616
2017-11-28T11:23:50.787Z,7500
2017-11-28T11:24:50.810Z,7356
2017-11-28T11:25:50.754Z,7272
2017-11-28T11:26:50.488Z,7096
2017-11-28T11:27:50.758Z,6976
2017-11-28T11:28:50.471Z,7008
2017-11-28T11:29:50.719Z,7048
2017-11-28T11:30:50.188Z,7160
2017-11-28T11:31:50.709Z,7012
2017-11-28T11:32:50.427Z,6908
2017-11-28T11:33:50.724Z,6812
2017-11-28T11:34:50.189Z,6876
2017-11-28T11:35:50.669Z,6632
2017-11-28T11:36:50.652Z,6488
2017-11-28T11:37:50.394Z,6452
2017-11-28T11:38:50.660Z,6524
2017-11-28T11:39:50.651Z,6536
2017-11-28T11:40:51.247Z,6748
2017-11-28T11:41:50.491Z,7108
2017-11-28T11:42:50.789Z,7180
2017-11-28T11:43:50.749Z,7584
2017-11-28T11:44:50.615Z,7584
2017-11-28T11:45:50.389Z,7632
2017-11-28T11:46:50.738Z,7344
2017-11-28T11:47:50.332Z,7092
2017-11-28T11:48:50.595Z,6804
2017-11-28T11:49:50.352Z,6424
2017-11-28T11:50:50.579Z,5992
2017-11-28T11:51:50.272Z,5612
2017-11-28T11:52:50.838Z,5340
2017-11-28T11:53:50.218Z,5236
2017-11-28T11:54:50.533Z,5340
2017-11-28T11:55:50.218Z,5540
2017-11-28T11:56:50.235Z,5720
2017-11-28T11:57:50.484Z,5848
2017-11-28T11:58:50.461Z,5964
2017-11-28T11:59:50.395Z,6076
2017-11-28T12:00:50.497Z,6136
2017-11-28T12:01:50.441Z,6100
2017-11-28T12:02:50.437Z,6044
2017-11-28T12:03:50.144Z,5880
2017-11-28T12:04:50.143Z,5676
2017-11-28T12:05:50.389Z,5516
2017-11-28T12:06:49.869Z,5440
2017-11-28T12:07:50.393Z,5336
2017-11-28T12:08:50.169Z,5204
2017-11-28T12:09:50.390Z,5096
2017-11-28T12:10:50.085Z,4956
2017-11-28T12:11:50.108Z,4780
2017-11-28T12:12:50.310Z,4592
2017-11-28T12:13:50.593Z,4456
2017-11-28T12:14:50.354Z,4592
2017-11-28T12:15:49.824Z,4628
2017-11-28T12:16:49.802Z,4480
2017-11-28T12:17:50.020Z,5108
2017-11-28T12:18:50.264Z,4892
2017-11-28T12:19:50.262Z,4684
2017-11-28T12:20:50.031Z,4648
2017-11-28T12:21:50.278Z,4528
2017-11-28T12:22:50.227Z,4412
2017-11-28T12:23:49.952Z,4232
2017-11-28T12:24:50.289Z,4100
2017-11-28T12:25:50.308Z,3780
2017-11-28T12:26:50.085Z,3556
2017-11-28T12:27:49.689Z,3416
2017-11-28T12:28:49.667Z,3356
2017-11-28T12:29:49.653Z,3328
2017-11-28T12:30:49.943Z,3316
2017-11-28T12:31:49.918Z,3352
2017-11-28T12:32:49.889Z,3428
2017-11-28T12:33:49.892Z,3496
2017-11-28T12:34:50.132Z,3480
2017-11-28T12:35:49.858Z,3312
2017-11-28T12:36:49.885Z,3108
2017-11-28T12:37:49.871Z,2964
2017-11-28T12:38:50.139Z,2932
2017-11-28T12:39:50.113Z,2832
2017-11-28T12:40:49.548Z,2800
2017-11-28T12:41:49.817Z,2824
2017-11-28T12:42:50.065Z,2836
2017-11-28T12:43:49.797Z,2828
2017-11-28T12:44:50.085Z,2796
2017-11-28T12:45:50.045Z,2720
2017-11-28T12:46:50.043Z,2724
2017-11-28T12:47:50.018Z,2736
2017-11-28T12:48:50.026Z,2780
2017-11-28T12:49:49.731Z,2828
2017-11-28T12:50:49.776Z,2836
2017-11-28T12:51:49.979Z,2772
2017-11-28T12:52:49.708Z,2692
2017-11-28T12:53:49.712Z,2788
2017-11-28T12:54:49.731Z,2556
2017-11-28T12:55:49.930Z,2500
2017-11-28T12:56:49.731Z,2464
2017-11-28T12:57:49.968Z,2436
2017-11-28T12:58:49.894Z,2444
2017-11-28T12:59:49.942Z,2432
2017-11-28T13:00:49.679Z,2416
2017-11-28T13:01:49.344Z,2400
2017-11-28T13:02:49.607Z,2380
2017-11-28T13:03:49.903Z,2408
2017-11-28T13:04:49.857Z,2600
2017-11-28T13:05:49.576Z,2872
2017-11-28T13:06:49.305Z,2924
2017-11-28T13:07:49.554Z,3072
2017-11-28T13:08:49.824Z,3280
2017-11-28T13:09:49.829Z,3324
2017-11-28T13:10:49.791Z,3196
2017-11-28T13:11:49.757Z,3508
2017-11-28T13:12:49.754Z,3772
2017-11-28T13:13:49.761Z,3820
2017-11-28T13:14:49.809Z,3264
2017-11-28T13:15:49.748Z,2688
2017-11-28T13:16:49.979Z,2372
2017-11-28T13:17:49.710Z,2268
2017-11-28T13:18:49.433Z,2268
2017-11-28T13:19:49.729Z,2348
2017-11-28T13:20:49.410Z,2408
2017-11-28T13:21:49.695Z,2472
2017-11-28T13:22:49.668Z,2488
2017-11-28T13:23:49.382Z,2456
2017-11-28T13:24:49.717Z,2452
2017-11-28T13:25:49.095Z,2400
2017-11-28T13:26:49.648Z,2316
2017-11-28T13:27:49.626Z,2312
2017-11-28T13:28:49.098Z,2320
2017-11-28T13:29:49.649Z,2396
2017-11-28T13:30:49.333Z,2516
2017-11-28T13:31:49.570Z,2508
2017-11-28T13:32:49.574Z,2492
2017-11-28T13:33:49.547Z,2460
2017-11-28T13:34:49.258Z,2424
2017-11-28T13:35:48.997Z,2364
2017-11-28T13:36:49.288Z,2256
2017-11-28T13:37:49.513Z,2220
2017-11-28T13:38:49.252Z,2244
2017-11-28T13:39:49.237Z,2256
2017-11-28T13:40:49.460Z,2240
2017-11-28T13:41:49.445Z,2312
2017-11-28T13:42:49.464Z,2372
2017-11-28T13:43:48.911Z,2396
2017-11-28T13:44:49.154Z,2364
2017-11-28T13:45:49.417Z,2268
2017-11-28T13:46:49.410Z,2152
2017-11-28T13:47:49.123Z,2112
2017-11-28T13:48:49.130Z,2008
2017-11-28T13:49:49.140Z,1936
2017-11-28T13:50:49.104Z,1896
2017-11-28T13:51:49.357Z,1828
2017-11-28T13:52:49.338Z,1864
2017-11-28T13:53:48.790Z,1844
2017-11-28T13:54:49.332Z,1776
2017-11-28T13:55:49.047Z,1780
2017-11-28T13:56:49.297Z,1740
2017-11-28T13:57:49.295Z,1756
2017-11-28T13:58:49.128Z,1792
2017-11-28T13:59:49.326Z,1748